createdAt,value
2019-03-15T00:00:30.085Z,977.92
2019-03-15T00:01:30.208Z,977.95
2019-03-15T00:02:30.337Z,977.91
2019-03-15T00:03:30.477Z,977.91
2019-03-15T00:04:30.611Z,977.89
2019-03-15T00:05:30.739Z,977.89
2019-03-15T00:06:30.879Z,977.93
2019-03-15T00:07:30.998Z,977.96
2019-03-15T00:08:31.408Z,977.97
2019-03-15T00:09:31.283Z,977.98
2019-03-15T00:10:31.412Z,978.03
2019-03-15T00:11:31.541Z,978.08
2019-03-15T00:12:31.664Z,978.07
2019-03-15T00:13:31.798Z,978.05
2019-03-15T00:14:31.922Z,978.04
2019-03-15T00:15:32.042Z,977.98
2019-03-15T00:16:32.168Z,977.96
2019-03-15T00:17:32.307Z,977.98
2019-03-15T00:18:32.431Z,978.06
2019-03-15T00:19:32.555Z,978.00
2019-03-15T00:20:32.687Z,978.05
2019-03-15T00:21:32.820Z,978.02
2019-03-15T00:22:32.938Z,977.99
2019-03-15T00:23:33.067Z,977.96
2019-03-15T00:24:33.191Z,977.97
2019-03-15T00:25:33.327Z,977.98
2019-03-15T00:26:33.460Z,978.01
2019-03-15T00:27:33.605Z,978.03
2019-03-15T00:28:33.711Z,978.05
2019-03-15T00:29:33.847Z,978.09
2019-03-15T00:30:33.964Z,978.16
2019-03-15T00:31:34.095Z,978.16
2019-03-15T00:32:34.219Z,978.16
2019-03-15T00:33:34.356Z,978.17
2019-03-15T00:34:34.473Z,978.18
2019-03-15T00:35:34.598Z,978.14
2019-03-15T00:36:34.723Z,978.15
2019-03-15T00:37:34.849Z,978.27
2019-03-15T00:38:34.979Z,978.24
2019-03-15T00:39:35.119Z,978.28
2019-03-15T00:40:35.239Z,978.33
2019-03-15T00:41:35.366Z,978.34
2019-03-15T00:42:35.489Z,978.41
2019-03-15T00:43:35.623Z,978.46
2019-03-15T00:44:35.743Z,978.46
2019-03-15T00:45:35.867Z,978.48
2019-03-15T00:46:35.987Z,978.46
2019-03-15T00:47:36.131Z,978.49
2019-03-15T00:48:36.257Z,978.53
2019-03-15T00:49:36.387Z,978.58
2019-03-15T00:50:36.497Z,978.50
2019-03-15T00:51:36.652Z,978.53
2019-03-15T00:52:36.771Z,978.52
2019-03-15T00:53:36.895Z,978.58
2019-03-15T00:54:37.043Z,978.56
2019-03-15T00:55:37.182Z,978.53
2019-03-15T00:56:37.281Z,978.56
2019-03-15T00:57:37.410Z,978.63
2019-03-15T00:58:37.533Z,978.50
2019-03-15T00:59:37.679Z,978.51
2019-03-15T01:00:37.793Z,978.43
2019-03-15T01:01:37.930Z,978.45
2019-03-15T01:02:38.058Z,978.42
2019-03-15T01:03:38.192Z,978.47
2019-03-15T01:04:38.318Z,978.59
2019-03-15T01:05:38.443Z,978.57
2019-03-15T01:06:38.576Z,978.56
2019-03-15T01:07:38.701Z,978.60
2019-03-15T01:08:38.823Z,978.60
2019-03-15T01:09:38.957Z,978.59
2019-03-15T01:10:39.083Z,978.60
2019-03-15T01:11:39.250Z,978.67
2019-03-15T01:12:39.368Z,978.65
2019-03-15T01:13:39.487Z,978.58
2019-03-15T01:14:39.610Z,978.54
2019-03-15T01:15:39.752Z,978.60
2019-03-15T01:16:39.876Z,978.59
2019-03-15T01:17:39.992Z,978.60
2019-03-15T01:18:40.116Z,978.52
2019-03-15T01:19:40.258Z,978.51
2019-03-15T01:20:40.382Z,978.66
2019-03-15T01:21:40.516Z,978.53
2019-03-15T01:22:40.654Z,978.57
2019-03-15T01:23:40.798Z,978.57
2019-03-15T01:24:40.921Z,978.61
2019-03-15T01:25:41.039Z,978.59
2019-03-15T01:26:41.161Z,978.71
2019-03-15T01:27:41.323Z,978.65
2019-03-15T01:28:41.442Z,978.62
2019-03-15T01:29:41.574Z,978.63
2019-03-15T01:30:41.687Z,978.56
2019-03-15T01:31:41.841Z,978.56
2019-03-15T01:32:41.967Z,978.58
2019-03-15T01:33:42.085Z,978.50
2019-03-15T01:34:42.204Z,978.55
2019-03-15T01:35:42.364Z,978.56
2019-03-15T01:36:42.480Z,978.60
2019-03-15T01:37:42.608Z,978.67
2019-03-15T01:38:42.732Z,978.66
2019-03-15T01:39:42.870Z,978.69
2019-03-15T01:40:42.997Z,978.66
2019-03-15T01:41:43.129Z,978.70
2019-03-15T01:42:43.244Z,978.70
2019-03-15T01:43:43.393Z,978.74
2019-03-15T01:44:43.586Z,978.70
2019-03-15T01:45:43.698Z,978.68
2019-03-15T01:46:43.762Z,978.67
2019-03-15T01:47:43.907Z,978.70
2019-03-15T01:48:44.047Z,978.70
2019-03-15T01:49:44.675Z,978.67
2019-03-15T01:50:44.294Z,978.67
2019-03-15T01:51:44.425Z,978.67
2019-03-15T01:52:44.540Z,978.69
2019-03-15T01:53:44.656Z,978.77
2019-03-15T01:54:44.882Z,978.75
2019-03-15T01:55:44.913Z,978.76
2019-03-15T01:56:45.033Z,978.72
2019-03-15T01:57:45.151Z,978.73
2019-03-15T01:58:45.272Z,978.68
2019-03-15T01:59:45.407Z,978.68
2019-03-15T02:00:45.525Z,978.63
2019-03-15T02:01:45.640Z,978.71
2019-03-15T02:02:45.765Z,978.60
2019-03-15T02:03:45.888Z,978.71
2019-03-15T02:04:46.015Z,978.68
2019-03-15T02:05:46.142Z,978.60
2019-03-15T02:06:46.262Z,978.55
2019-03-15T02:07:46.386Z,978.59
2019-03-15T02:08:46.514Z,978.57
2019-03-15T02:09:46.637Z,978.57
2019-03-15T02:10:46.772Z,978.58
2019-03-15T02:11:46.905Z,978.67
2019-03-15T02:12:47.494Z,978.65
2019-03-15T02:13:47.139Z,978.66
2019-03-15T02:14:47.275Z,978.61
2019-03-15T02:15:47.398Z,978.65
2019-03-15T02:16:47.531Z,978.59
2019-03-15T02:17:47.649Z,978.70
2019-03-15T02:18:47.809Z,978.70
2019-03-15T02:19:47.929Z,978.74
2019-03-15T02:20:48.054Z,978.72
2019-03-15T02:21:48.222Z,978.69
2019-03-15T02:22:48.354Z,978.64
2019-03-15T02:23:48.542Z,978.65
2019-03-15T02:24:48.608Z,978.69
2019-03-15T02:25:48.732Z,978.75
2019-03-15T02:26:48.908Z,978.78
2019-03-15T02:27:49.006Z,978.74
2019-03-15T02:28:49.127Z,978.70
2019-03-15T02:29:49.246Z,978.69
2019-03-15T02:30:49.377Z,978.84
2019-03-15T02:31:49.496Z,978.84
2019-03-15T02:32:49.627Z,978.84
2019-03-15T02:33:49.757Z,978.81
2019-03-15T02:34:50.192Z,978.85
2019-03-15T02:35:50.000Z,978.73
2019-03-15T02:36:50.135Z,978.68
2019-03-15T02:37:50.254Z,978.62
2019-03-15T02:38:50.373Z,978.67
2019-03-15T02:39:50.516Z,978.64
2019-03-15T02:40:50.647Z,978.69
2019-03-15T02:41:50.760Z,978.64
2019-03-15T02:42:50.883Z,978.63
2019-03-15T02:43:51.018Z,978.65
2019-03-15T02:44:51.126Z,978.65
2019-03-15T02:45:51.257Z,978.68
2019-03-15T02:46:52.298Z,978.62
2019-03-15T02:47:51.514Z,978.66
2019-03-15T02:48:51.637Z,978.61
2019-03-15T02:49:51.759Z,978.69
2019-03-15T02:50:51.878Z,978.66
2019-03-15T02:51:52.010Z,978.70
2019-03-15T02:52:52.131Z,978.74
2019-03-15T02:53:52.257Z,978.73
2019-03-15T02:54:52.663Z,978.73
2019-03-15T02:55:52.515Z,978.77
2019-03-15T02:56:52.644Z,978.84
2019-03-15T02:57:52.759Z,978.84
2019-03-15T02:58:54.019Z,978.95
2019-03-15T02:59:53.022Z,978.95
2019-03-15T03:00:53.155Z,978.91
2019-03-15T03:01:53.288Z,979.04
2019-03-15T03:02:54.066Z,978.93
2019-03-15T03:03:53.555Z,978.91
2019-03-15T03:04:53.701Z,978.90
2019-03-15T03:05:53.808Z,978.97
2019-03-15T03:06:54.788Z,978.94
2019-03-15T03:07:54.049Z,979.02
2019-03-15T03:08:54.176Z,978.97
2019-03-15T03:09:54.299Z,979.05
2019-03-15T03:10:55.859Z,979.06
2019-03-15T03:11:54.608Z,979.01
2019-03-15T03:12:54.730Z,979.03
2019-03-15T03:13:54.854Z,979.04
2019-03-15T03:14:54.982Z,979.00
2019-03-15T03:15:55.109Z,978.97
2019-03-15T03:16:55.230Z,978.96
2019-03-15T03:17:55.363Z,979.00
2019-03-15T03:18:55.502Z,979.05
2019-03-15T03:19:55.627Z,979.03
2019-03-15T03:20:55.749Z,979.02
2019-03-15T03:21:55.890Z,979.13
2019-03-15T03:22:56.121Z,979.09
2019-03-15T03:23:57.303Z,979.09
2019-03-15T03:24:56.245Z,979.02
2019-03-15T03:25:56.369Z,979.02
2019-03-15T03:26:56.503Z,979.01
2019-03-15T03:27:56.634Z,979.05
2019-03-15T03:28:57.008Z,979.03
2019-03-15T03:29:56.929Z,979.07
2019-03-15T03:30:57.047Z,979.06
2019-03-15T03:31:57.211Z,979.13
2019-03-15T03:32:57.321Z,979.07
2019-03-15T03:33:57.455Z,979.13
2019-03-15T03:34:57.569Z,979.11
2019-03-15T03:35:57.723Z,979.32
2019-03-15T03:36:58.263Z,979.23
2019-03-15T03:37:57.956Z,979.27
2019-03-15T03:38:58.100Z,979.21
2019-03-15T03:39:58.227Z,979.17
2019-03-15T03:40:58.354Z,979.13
2019-03-15T03:41:58.485Z,979.08
2019-03-15T03:42:58.664Z,979.11
2019-03-15T03:43:58.779Z,979.08
2019-03-15T03:44:58.903Z,979.05
2019-03-15T03:45:59.029Z,978.93
2019-03-15T03:46:59.167Z,978.93
2019-03-15T03:47:59.290Z,978.93
2019-03-15T03:48:59.413Z,979.00
2019-03-15T03:49:59.541Z,979.07
2019-03-15T03:51:00.251Z,979.06
2019-03-15T03:51:59.792Z,979.08
2019-03-15T03:52:59.919Z,979.15
2019-03-15T03:54:00.045Z,979.15
2019-03-15T03:55:00.256Z,979.18
2019-03-15T03:56:00.314Z,979.17
2019-03-15T03:57:00.452Z,979.19
2019-03-15T03:58:00.563Z,979.12
2019-03-15T03:59:00.687Z,979.21
2019-03-15T04:00:00.921Z,979.30
2019-03-15T04:01:00.939Z,979.30
2019-03-15T04:02:01.096Z,979.41
2019-03-15T04:03:01.213Z,979.32
2019-03-15T04:04:01.334Z,979.30
2019-03-15T04:05:01.467Z,979.28
2019-03-15T04:06:01.595Z,979.26
2019-03-15T04:07:01.720Z,979.29
2019-03-15T04:08:01.849Z,979.22
2019-03-15T04:09:01.995Z,979.24
2019-03-15T04:10:05.263Z,979.17
2019-03-15T04:11:02.244Z,979.21
2019-03-15T04:12:02.368Z,979.21
2019-03-15T04:13:02.496Z,979.21
2019-03-15T04:14:02.623Z,979.25
2019-03-15T04:15:02.825Z,979.28
2019-03-15T04:16:02.971Z,979.30
2019-03-15T04:17:03.005Z,979.27
2019-03-15T04:18:05.368Z,979.32
2019-03-15T04:19:03.267Z,979.29
2019-03-15T04:20:03.393Z,979.27
2019-03-15T04:21:03.515Z,979.24
2019-03-15T04:22:03.647Z,979.22
2019-03-15T04:23:03.769Z,979.18
2019-03-15T04:24:03.896Z,979.12
2019-03-15T04:25:07.086Z,979.09
2019-03-15T04:26:04.153Z,979.05
2019-03-15T04:27:04.275Z,979.11
2019-03-15T04:28:04.395Z,979.15
2019-03-15T04:29:04.520Z,979.22
2019-03-15T04:30:04.672Z,979.25
2019-03-15T04:31:04.790Z,979.25
2019-03-15T04:32:04.910Z,979.24
2019-03-15T04:33:05.040Z,979.22
2019-03-15T04:34:05.186Z,979.32
2019-03-15T04:35:05.311Z,979.35
2019-03-15T04:36:05.438Z,979.34
2019-03-15T04:37:05.560Z,979.31
2019-03-15T04:38:05.699Z,979.32
2019-03-15T04:39:05.819Z,979.28
2019-03-15T04:40:06.143Z,979.28
2019-03-15T04:41:06.065Z,979.19
2019-03-15T04:42:06.185Z,979.25
2019-03-15T04:43:06.388Z,979.21
2019-03-15T04:44:06.467Z,979.22
2019-03-15T04:45:06.593Z,979.26
2019-03-15T04:46:06.718Z,979.20
2019-03-15T04:47:06.862Z,979.24
2019-03-15T04:48:06.987Z,979.19
2019-03-15T04:49:07.114Z,979.26
2019-03-15T04:50:07.232Z,979.32
2019-03-15T04:51:07.360Z,979.18
2019-03-15T04:52:07.485Z,979.20
2019-03-15T04:53:07.614Z,979.24
2019-03-15T04:54:07.791Z,979.25
2019-03-15T04:55:07.928Z,979.27
2019-03-15T04:56:08.040Z,979.22
2019-03-15T04:57:08.174Z,979.29
2019-03-15T04:58:08.390Z,979.26
2019-03-15T04:59:08.439Z,979.24
2019-03-15T05:00:08.563Z,979.26
2019-03-15T05:01:08.707Z,979.27
2019-03-15T05:02:08.823Z,979.31
2019-03-15T05:03:08.935Z,979.24
2019-03-15T05:04:09.075Z,979.27
2019-03-15T05:05:09.205Z,979.29
2019-03-15T05:06:09.324Z,979.24
2019-03-15T05:07:09.450Z,979.23
2019-03-15T05:08:09.592Z,979.25
2019-03-15T05:09:09.719Z,979.17
2019-03-15T05:10:09.845Z,979.27
2019-03-15T05:11:09.980Z,979.23
2019-03-15T05:12:10.111Z,979.25
2019-03-15T05:13:10.234Z,979.26
2019-03-15T05:14:10.360Z,979.24
2019-03-15T05:15:10.488Z,979.21
2019-03-15T05:16:10.640Z,979.21
2019-03-15T05:17:10.745Z,979.16
2019-03-15T05:18:10.876Z,979.26
2019-03-15T05:19:11.000Z,979.22
2019-03-15T05:20:11.127Z,979.15
2019-03-15T05:21:11.255Z,979.13
2019-03-15T05:22:11.387Z,979.10
2019-03-15T05:23:11.510Z,979.18
2019-03-15T05:24:11.647Z,979.13
2019-03-15T05:25:11.768Z,979.12
2019-03-15T05:26:11.897Z,979.20
2019-03-15T05:27:12.022Z,979.16
2019-03-15T05:28:12.166Z,979.10
2019-03-15T05:29:12.273Z,979.17
2019-03-15T05:30:12.415Z,979.15
2019-03-15T05:31:12.529Z,979.18
2019-03-15T05:32:12.667Z,979.25
2019-03-15T05:33:12.853Z,979.30
2019-03-15T05:34:12.853Z,979.29
2019-03-15T05:35:12.983Z,979.34
2019-03-15T05:36:13.132Z,979.32
2019-03-15T05:37:13.244Z,979.41
2019-03-15T05:38:13.369Z,979.39
2019-03-15T05:39:13.500Z,979.44
2019-03-15T05:40:13.646Z,979.46
2019-03-15T05:41:13.772Z,979.44
2019-03-15T05:42:13.894Z,979.53
2019-03-15T05:43:14.038Z,979.44
2019-03-15T05:44:14.162Z,979.44
2019-03-15T05:45:14.364Z,979.49
2019-03-15T05:46:14.413Z,979.46
2019-03-15T05:47:14.553Z,979.54
2019-03-15T05:48:14.680Z,979.51
2019-03-15T05:49:14.795Z,979.54
2019-03-15T05:50:14.922Z,979.51
2019-03-15T05:51:15.066Z,979.54
2019-03-15T05:52:15.235Z,979.57
2019-03-15T05:53:15.366Z,979.58
2019-03-15T05:54:15.511Z,979.51
2019-03-15T05:55:15.648Z,979.52
2019-03-15T05:56:15.773Z,979.51
2019-03-15T05:57:15.888Z,979.51
2019-03-15T05:58:16.024Z,979.55
2019-03-15T05:59:16.144Z,979.50
2019-03-15T06:00:16.271Z,979.47
2019-03-15T06:01:16.402Z,979.53
2019-03-15T06:02:16.518Z,979.49
2019-03-15T06:03:16.655Z,979.52
2019-03-15T06:04:16.775Z,979.55
2019-03-15T06:05:16.901Z,979.48
2019-03-15T06:06:17.038Z,979.46
2019-03-15T06:07:17.181Z,979.42
2019-03-15T06:08:17.296Z,979.40
2019-03-15T06:09:17.427Z,979.36
2019-03-15T06:10:17.549Z,979.45
2019-03-15T06:11:17.696Z,979.47
2019-03-15T06:12:17.806Z,979.47
2019-03-15T06:13:17.942Z,979.47
2019-03-15T06:14:18.056Z,979.47
2019-03-15T06:15:18.196Z,979.42
2019-03-15T06:16:18.319Z,979.49
2019-03-15T06:17:18.448Z,979.51
2019-03-15T06:18:18.579Z,979.40
2019-03-15T06:19:18.711Z,979.47
2019-03-15T06:20:18.839Z,979.43
2019-03-15T06:21:18.965Z,979.42
2019-03-15T06:22:19.095Z,979.39
2019-03-15T06:23:19.241Z,979.37
2019-03-15T06:24:19.336Z,979.38
2019-03-15T06:25:19.538Z,979.36
2019-03-15T06:26:19.594Z,979.34
2019-03-15T06:27:19.725Z,979.27
2019-03-15T06:28:19.849Z,979.36
2019-03-15T06:29:19.976Z,979.32
2019-03-15T06:30:20.107Z,979.29
2019-03-15T06:31:20.231Z,979.41
2019-03-15T06:32:20.355Z,979.39
2019-03-15T06:33:20.485Z,979.37
2019-03-15T06:34:20.603Z,979.30
2019-03-15T06:35:20.729Z,979.33
2019-03-15T06:36:20.859Z,979.29
2019-03-15T06:37:20.984Z,979.22
2019-03-15T06:38:21.127Z,979.27
2019-03-15T06:39:21.253Z,979.23
2019-03-15T06:40:21.376Z,979.22
2019-03-15T06:41:21.507Z,979.22
2019-03-15T06:42:21.631Z,979.15
2019-03-15T06:43:21.759Z,979.16
2019-03-15T06:44:21.882Z,979.18
2019-03-15T06:45:22.022Z,979.12
2019-03-15T06:46:22.149Z,979.04
2019-03-15T06:47:22.263Z,978.97
2019-03-15T06:48:22.384Z,978.96
2019-03-15T06:49:22.505Z,978.90
2019-03-15T06:50:22.630Z,979.00
2019-03-15T06:51:22.751Z,978.95
2019-03-15T06:52:22.880Z,978.90
2019-03-15T06:53:23.003Z,978.88
2019-03-15T06:54:23.123Z,978.86
2019-03-15T06:55:23.251Z,978.88
2019-03-15T06:56:23.376Z,978.91
2019-03-15T06:57:23.509Z,978.92
2019-03-15T06:58:23.676Z,978.87
2019-03-15T06:59:23.758Z,978.85
2019-03-15T07:00:23.887Z,978.92
2019-03-15T07:01:24.146Z,978.90
2019-03-15T07:02:24.137Z,978.86
2019-03-15T07:03:24.268Z,978.91
2019-03-15T07:04:24.393Z,978.93
2019-03-15T07:05:24.521Z,978.91
2019-03-15T07:06:24.660Z,978.90
2019-03-15T07:07:24.782Z,978.90
2019-03-15T07:08:24.903Z,978.85
2019-03-15T07:09:25.023Z,978.82
2019-03-15T07:10:25.180Z,978.81
2019-03-15T07:11:25.289Z,978.84
2019-03-15T07:12:25.425Z,978.82
2019-03-15T07:13:25.548Z,978.82
2019-03-15T07:14:25.666Z,978.83
2019-03-15T07:15:25.791Z,978.86
2019-03-15T07:16:25.921Z,978.81
2019-03-15T07:17:26.049Z,978.80
2019-03-15T07:18:26.183Z,978.81
2019-03-15T07:19:30.339Z,978.78
2019-03-15T07:20:26.422Z,978.84
2019-03-15T07:21:26.545Z,978.85
2019-03-15T07:22:26.672Z,978.80
2019-03-15T07:23:26.805Z,978.80
2019-03-15T07:24:26.930Z,978.84
2019-03-15T07:25:27.055Z,978.99
2019-03-15T07:26:27.191Z,978.88
2019-03-15T07:27:27.312Z,978.87
2019-03-15T07:28:27.446Z,978.83
2019-03-15T07:29:27.571Z,978.84
2019-03-15T07:30:27.775Z,978.85
2019-03-15T07:31:27.767Z,978.84
2019-03-15T07:32:27.890Z,978.86
2019-03-15T07:33:28.021Z,978.80
2019-03-15T07:34:28.168Z,978.70
2019-03-15T07:35:28.302Z,978.80
2019-03-15T07:36:28.420Z,978.78
2019-03-15T07:37:28.549Z,978.76
2019-03-15T07:38:28.671Z,978.75
2019-03-15T07:39:28.799Z,978.79
2019-03-15T07:40:28.916Z,978.73
2019-03-15T07:41:29.031Z,978.72
2019-03-15T07:42:29.192Z,978.77
2019-03-15T07:43:29.310Z,978.64
2019-03-15T07:44:29.429Z,978.61
2019-03-15T07:45:29.562Z,978.58
2019-03-15T07:46:29.699Z,978.65
2019-03-15T07:47:29.826Z,978.65
2019-03-15T07:48:29.950Z,978.70
2019-03-15T07:49:30.080Z,978.59
2019-03-15T07:50:30.205Z,978.59
2019-03-15T07:51:30.360Z,978.69
2019-03-15T07:52:30.506Z,978.62
2019-03-15T07:53:30.621Z,978.73
2019-03-15T07:54:37.894Z,978.64
2019-03-15T07:55:30.868Z,978.61
2019-03-15T07:56:31.007Z,978.62
2019-03-15T07:57:31.133Z,978.73
2019-03-15T07:58:31.264Z,978.64
2019-03-15T07:59:31.393Z,978.69
2019-03-15T08:00:31.504Z,978.68
2019-03-15T08:01:31.630Z,978.61
2019-03-15T08:02:31.751Z,978.60
2019-03-15T08:03:32.272Z,978.68
2019-03-15T08:04:32.044Z,978.55
2019-03-15T08:05:32.168Z,978.65
2019-03-15T08:06:34.969Z,978.61
2019-03-15T08:07:36.483Z,978.62
2019-03-15T08:08:32.665Z,978.61
2019-03-15T08:09:32.689Z,978.67
2019-03-15T08:10:32.834Z,978.67
2019-03-15T08:11:32.957Z,978.54
2019-03-15T08:12:33.091Z,978.61
2019-03-15T08:13:33.227Z,978.65
2019-03-15T08:14:33.384Z,978.62
2019-03-15T08:15:33.511Z,978.49
2019-03-15T08:16:34.593Z,978.50
2019-03-15T08:17:33.769Z,978.52
2019-03-15T08:18:33.930Z,978.53
2019-03-15T08:19:34.049Z,978.53
2019-03-15T08:20:34.176Z,978.40
2019-03-15T08:21:34.329Z,978.43
2019-03-15T08:22:34.464Z,978.50
2019-03-15T08:23:34.585Z,978.44
2019-03-15T08:24:36.687Z,978.46
2019-03-15T08:25:34.849Z,978.54
2019-03-15T08:26:34.956Z,978.52
2019-03-15T08:27:35.089Z,978.53
2019-03-15T08:28:35.216Z,978.43
2019-03-15T08:29:35.398Z,978.43
2019-03-15T08:30:35.503Z,978.53
2019-03-15T08:31:35.630Z,978.52
2019-03-15T08:32:35.754Z,978.48
2019-03-15T08:33:35.917Z,978.46
2019-03-15T08:34:36.037Z,978.45
2019-03-15T08:35:36.160Z,978.46
2019-03-15T08:36:36.290Z,978.41
2019-03-15T08:37:36.413Z,978.44
2019-03-15T08:38:46.921Z,978.50
2019-03-15T08:39:36.688Z,978.53
2019-03-15T08:40:36.809Z,978.42
2019-03-15T08:41:36.956Z,978.39
2019-03-15T08:42:37.113Z,978.49
2019-03-15T08:43:37.224Z,978.43
2019-03-15T08:44:37.363Z,978.42
2019-03-15T08:45:37.487Z,978.37
2019-03-15T08:46:37.617Z,978.49
2019-03-15T08:47:37.750Z,978.33
2019-03-15T08:48:37.902Z,978.49
2019-03-15T08:49:38.028Z,978.30
2019-03-15T08:50:38.165Z,978.33
2019-03-15T08:51:38.282Z,978.27
2019-03-15T08:52:38.418Z,978.36
2019-03-15T08:53:38.546Z,978.38
2019-03-15T08:54:38.681Z,978.17
2019-03-15T08:55:40.032Z,978.32
2019-03-15T08:56:38.931Z,978.19
2019-03-15T08:57:39.052Z,978.25
2019-03-15T08:58:39.180Z,978.26
2019-03-15T08:59:52.450Z,978.28
2019-03-15T09:00:39.527Z,978.38
2019-03-15T09:01:39.526Z,978.28
2019-03-15T09:02:39.653Z,978.34
2019-03-15T09:03:39.786Z,978.31
2019-03-15T09:04:39.906Z,978.21
2019-03-15T09:05:40.028Z,978.34
2019-03-15T09:06:41.148Z,978.27
2019-03-15T09:07:40.308Z,978.29
2019-03-15T09:08:40.444Z,978.24
2019-03-15T09:09:40.563Z,978.28
2019-03-15T09:10:40.696Z,978.22
2019-03-15T09:11:40.818Z,978.31
2019-03-15T09:12:40.947Z,978.25
2019-03-15T09:13:41.083Z,978.28
2019-03-15T09:14:41.204Z,978.26
2019-03-15T09:15:41.330Z,978.34
2019-03-15T09:16:41.453Z,978.28
2019-03-15T09:17:41.580Z,978.35
2019-03-15T09:18:41.703Z,978.42
2019-03-15T09:19:41.828Z,978.56
2019-03-15T09:20:41.960Z,978.44
2019-03-15T09:21:42.107Z,978.46
2019-03-15T09:22:42.230Z,978.45
2019-03-15T09:23:42.360Z,978.38
2019-03-15T09:24:42.490Z,978.42
2019-03-15T09:25:42.626Z,978.40
2019-03-15T09:26:42.747Z,978.43
2019-03-15T09:27:45.443Z,978.35
2019-03-15T09:28:43.001Z,978.32
2019-03-15T09:29:43.125Z,978.31
2019-03-15T09:30:43.252Z,978.36
2019-03-15T09:31:47.919Z,978.35
2019-03-15T09:32:43.498Z,978.30
2019-03-15T09:33:43.628Z,978.35
2019-03-15T09:34:43.753Z,978.27
2019-03-15T09:35:43.929Z,978.18
2019-03-15T09:36:50.013Z,978.09
2019-03-15T09:37:46.963Z,978.04
2019-03-15T09:38:44.324Z,977.97
2019-03-15T09:39:44.468Z,978.03
2019-03-15T09:40:44.579Z,977.98
2019-03-15T09:41:44.725Z,977.93
2019-03-15T09:42:44.847Z,977.92
2019-03-15T09:43:45.584Z,977.99
2019-03-15T09:44:45.110Z,977.99
2019-03-15T09:45:45.245Z,977.84
2019-03-15T09:46:45.368Z,977.86
2019-03-15T09:47:45.502Z,977.91
2019-03-15T09:48:45.688Z,977.84
2019-03-15T09:49:45.804Z,977.81
2019-03-15T09:50:51.312Z,977.72
2019-03-15T09:51:46.086Z,977.76
2019-03-15T09:52:46.200Z,977.82
2019-03-15T09:53:46.329Z,977.76
2019-03-15T09:54:46.481Z,977.83
2019-03-15T09:55:46.604Z,977.80
2019-03-15T09:56:46.737Z,977.73
2019-03-15T09:57:46.886Z,977.74
2019-03-15T09:58:47.007Z,977.65
2019-03-15T09:59:47.129Z,977.60
2019-03-15T10:00:47.257Z,977.59
2019-03-15T10:01:47.399Z,977.67
2019-03-15T10:02:47.526Z,977.66
2019-03-15T10:03:47.650Z,977.66
2019-03-15T10:04:47.814Z,977.60
2019-03-15T10:05:47.941Z,977.67
2019-03-15T10:06:48.061Z,977.58
2019-03-15T10:07:48.189Z,977.49
2019-03-15T10:08:48.483Z,977.56
2019-03-15T10:09:48.506Z,977.56
2019-03-15T10:10:49.308Z,977.63
2019-03-15T10:11:48.762Z,977.61
2019-03-15T10:12:48.924Z,977.54
2019-03-15T10:13:49.133Z,977.53
2019-03-15T10:14:49.129Z,977.53
2019-03-15T10:15:49.306Z,977.55
2019-03-15T10:16:49.407Z,977.53
2019-03-15T10:17:49.529Z,977.61
2019-03-15T10:18:50.658Z,977.56
2019-03-15T10:19:49.785Z,977.59
2019-03-15T10:20:49.941Z,977.50
2019-03-15T10:21:50.057Z,977.51
2019-03-15T10:23:04.722Z,977.41
2019-03-15T10:23:50.309Z,977.43
2019-03-15T10:24:50.452Z,977.43
2019-03-15T10:25:51.397Z,977.29
2019-03-15T10:26:50.701Z,977.42
2019-03-15T10:27:50.830Z,977.41
2019-03-15T10:28:50.982Z,977.36
2019-03-15T10:29:51.099Z,977.34
2019-03-15T10:30:51.233Z,977.39
2019-03-15T10:31:51.350Z,977.32
2019-03-15T10:32:51.486Z,977.38
2019-03-15T10:33:51.602Z,977.31
2019-03-15T10:34:51.737Z,977.37
2019-03-15T10:35:51.856Z,977.30
2019-03-15T10:36:51.980Z,977.36
2019-03-15T10:37:52.124Z,977.34
2019-03-15T10:38:52.236Z,977.36
2019-03-15T10:39:52.364Z,977.34
2019-03-15T10:40:52.527Z,977.41
2019-03-15T10:41:52.699Z,977.32
2019-03-15T10:42:55.328Z,977.37
2019-03-15T10:43:52.960Z,977.30
2019-03-15T10:44:53.084Z,977.38
2019-03-15T10:45:53.204Z,977.26
2019-03-15T10:46:53.329Z,977.30
2019-03-15T10:47:53.460Z,977.23
2019-03-15T10:48:53.588Z,977.22
2019-03-15T10:49:53.710Z,977.33
2019-03-15T10:50:53.841Z,977.28
2019-03-15T10:51:53.965Z,977.30
2019-03-15T10:52:54.312Z,977.24
2019-03-15T10:53:55.091Z,977.23
2019-03-15T10:54:54.352Z,977.32
2019-03-15T10:56:00.150Z,977.24
2019-03-15T10:56:54.606Z,977.33
2019-03-15T10:57:54.733Z,977.24
2019-03-15T10:58:54.861Z,977.25
2019-03-15T10:59:54.991Z,977.25
2019-03-15T11:00:55.127Z,977.17
2019-03-15T11:01:55.254Z,977.15
2019-03-15T11:02:55.384Z,977.15
2019-03-15T11:03:55.516Z,977.16
2019-03-15T11:04:55.640Z,977.14
2019-03-15T11:05:55.774Z,977.12
2019-03-15T11:06:55.902Z,977.12
2019-03-15T11:07:56.034Z,977.17
2019-03-15T11:08:56.178Z,977.24
2019-03-15T11:09:56.297Z,977.30
2019-03-15T11:10:56.423Z,977.27
2019-03-15T11:11:56.544Z,977.24
2019-03-15T11:12:56.673Z,977.18
2019-03-15T11:13:56.801Z,977.14
2019-03-15T11:14:56.928Z,977.11
2019-03-15T11:15:57.070Z,977.09
2019-03-15T11:16:57.188Z,977.13
2019-03-15T11:17:57.312Z,977.08
2019-03-15T11:18:57.436Z,977.01
2019-03-15T11:19:57.576Z,977.11
2019-03-15T11:20:57.712Z,977.08
2019-03-15T11:21:57.838Z,977.15
2019-03-15T11:22:57.972Z,977.18
2019-03-15T11:23:58.099Z,977.23
2019-03-15T11:24:58.223Z,977.16
2019-03-15T11:25:58.364Z,977.12
2019-03-15T11:26:58.482Z,977.11
2019-03-15T11:27:58.611Z,977.12
2019-03-15T11:28:58.739Z,977.05
2019-03-15T11:29:58.884Z,977.06
2019-03-15T11:31:00.729Z,977.02
2019-03-15T11:31:59.149Z,977.09
2019-03-15T11:32:59.285Z,977.04
2019-03-15T11:33:59.439Z,977.08
2019-03-15T11:34:59.543Z,977.06
2019-03-15T11:35:59.682Z,977.08
2019-03-15T11:36:59.922Z,977.03
2019-03-15T11:37:59.924Z,977.02
2019-03-15T11:39:00.061Z,976.97
2019-03-15T11:40:00.192Z,977.00
2019-03-15T11:41:00.324Z,976.98
2019-03-15T11:42:00.452Z,976.99
2019-03-15T11:43:00.594Z,976.96
2019-03-15T11:44:00.710Z,976.98
2019-03-15T11:45:00.836Z,976.89
2019-03-15T11:46:00.961Z,976.90
2019-03-15T11:47:01.106Z,976.86
2019-03-15T11:48:03.891Z,976.95
2019-03-15T11:49:01.333Z,976.94
2019-03-15T11:50:01.486Z,976.84
2019-03-15T11:51:01.617Z,976.89
2019-03-15T11:52:01.742Z,976.89
2019-03-15T11:53:01.873Z,976.77
2019-03-15T11:54:01.982Z,976.87
2019-03-15T11:55:02.120Z,976.84
2019-03-15T11:56:02.266Z,976.81
2019-03-15T11:57:02.378Z,976.80
2019-03-15T11:58:02.500Z,976.82
2019-03-15T11:59:02.636Z,976.72
2019-03-15T12:00:02.764Z,976.71
2019-03-15T12:01:02.942Z,976.70
2019-03-15T12:02:04.250Z,976.69
2019-03-15T12:03:03.141Z,976.63
2019-03-15T12:04:03.266Z,976.74
2019-03-15T12:05:03.403Z,976.70
2019-03-15T12:06:03.523Z,976.66
2019-03-15T12:07:03.656Z,976.69
2019-03-15T12:08:03.784Z,976.63
2019-03-15T12:09:03.913Z,976.89
2019-03-15T12:10:04.039Z,976.74
2019-03-15T12:11:04.174Z,976.70
2019-03-15T12:12:04.290Z,976.82
2019-03-15T12:13:04.416Z,976.69
2019-03-15T12:14:04.543Z,976.67
2019-03-15T12:15:04.684Z,976.67
2019-03-15T12:16:04.806Z,976.63
2019-03-15T12:17:04.938Z,976.77
2019-03-15T12:18:08.048Z,976.68
2019-03-15T12:19:05.286Z,976.76
2019-03-15T12:20:05.327Z,976.76
2019-03-15T12:21:05.460Z,976.74
2019-03-15T12:22:06.757Z,976.70
2019-03-15T12:23:05.756Z,976.76
2019-03-15T12:24:05.899Z,976.76
2019-03-15T12:25:06.019Z,976.72
2019-03-15T12:26:06.162Z,976.74
2019-03-15T12:27:06.284Z,976.75
2019-03-15T12:28:06.417Z,976.75
2019-03-15T12:29:06.543Z,976.75
2019-03-15T12:30:06.692Z,976.78